Time;durP1;ratioP1;P1;durP2;ratioP2;P2;SDS_P1;SDS_P2;PMS_P1;PMS_P2;Temp;Humidity;BMP_temperature;BMP_pressure;BME280_temperature;BME280_humidity;BME280_pressure;Samples;Min_cycle;Max_cycle;Signal;HPM_P1;HPM_P2
2023/07/11 00:00:15;;;;;;;9.30;2.90;;;24.00;74.70;;;;;;4249046;27;20047;-53
2023/07/11 00:02:18;;;;;;;7.68;2.53;;;24.00;73.50;;;;;;4249319;27;20091;-50
2023/07/11 00:04:20;;;;;;;8.90;2.50;;;24.00;73.70;;;;;;4247651;27;20062;-50
2023/07/11 00:06:23;;;;;;;9.63;2.80;;;24.10;73.30;;;;;;4248144;27;20058;-50
2023/07/11 00:08:25;;;;;;;6.30;2.53;;;24.10;73.20;;;;;;4248386;27;20047;-50
2023/07/11 00:10:27;;;;;;;5.55;2.15;;;24.10;73.10;;;;;;4248255;27;20371;-53
2023/07/11 00:12:29;;;;;;;4.28;2.30;;;24.10;73.00;;;;;;4247773;27;20480;-53
2023/07/11 00:14:32;;;;;;;4.55;2.00;;;24.10;74.00;;;;;;4247052;27;20042;-53
2023/07/11 00:16:34;;;;;;;6.82;2.47;;;24.10;73.60;;;;;;4247974;27;20474;-52
2023/07/11 00:18:37;;;;;;;5.78;2.17;;;24.10;73.30;;;;;;4229575;28;20090;-53
2023/07/11 00:20:38;;;;;;;8.48;2.40;;;24.10;73.30;;;;;;4247966;27;20043;-50
2023/07/11 00:22:47;;;;;;;7.35;2.00;;;24.10;73.30;;;;;;4248115;27;20122;-53
2023/07/11 00:24:54;;;;;;;7.88;2.20;;;24.10;73.70;;;;;;4229212;27;20139;-51
2023/07/11 00:26:56;;;;;;;5.60;2.22;;;24.00;73.60;;;;;;4247515;27;20426;-52
2023/07/11 00:29:00;;;;;;;5.82;2.25;;;24.00;73.90;;;;;;4247970;27;20070;-51
2023/07/11 00:31:02;;;;;;;6.05;2.40;;;24.10;74.00;;;;;;4248088;27;20043;-51
2023/07/11 00:33:09;;;;;;;3.78;2.40;;;24.10;73.70;;;;;;4247742;27;20448;-53
2023/07/11 00:35:16;;;;;;;5.05;2.20;;;24.00;73.90;;;;;;4246853;27;20046;-51
2023/07/11 00:37:18;;;;;;;7.40;2.30;;;24.00;73.80;;;;;;4247682;27;20074;-52
2023/07/11 00:39:22;;;;;;;7.80;2.42;;;24.10;74.10;;;;;;4247878;27;20043;-52
2023/07/11 00:41:24;;;;;;;5.53;2.38;;;24.00;74.70;;;;;;4247999;27;20070;-53
2023/07/11 00:43:26;;;;;;;6.32;2.38;;;24.00;74.10;;;;;;4247680;27;20049;-53
2023/07/11 00:46:00;;;;;;;4.45;1.98;;;24.00;74.40;;;;;;4246418;27;20046;-51
2023/07/11 00:48:02;;;;;;;5.20;2.08;;;24.00;74.30;;;;;;4247958;27;20043;-54
2023/07/11 00:50:07;;;;;;;8.80;2.50;;;24.00;74.50;;;;;;4247860;27;20405;-54
2023/07/11 00:52:11;;;;;;;5.28;2.08;;;24.00;74.60;;;;;;4247563;27;20091;-51
2023/07/11 00:54:16;;;;;;;11.75;3.03;;;24.00;74.70;;;;;;4246711;27;20268;-51
2023/07/11 00:56:23;;;;;;;11.93;2.47;;;24.00;74.60;;;;;;4247204;27;20066;-51
2023/07/11 00:58:25;;;;;;;4.50;2.08;;;24.00;74.70;;;;;;4247455;27;20067;-52
2023/07/11 01:00:27;;;;;;;7.72;2.38;;;23.90;74.70;;;;;;4247427;27;20405;-53
2023/07/11 01:02:31;;;;;;;8.75;2.13;;;24.00;74.70;;;;;;4247825;27;20062;-53
2023/07/11 01:04:34;;;;;;;6.88;2.53;;;24.00;74.70;;;;;;4246440;27;20047;-53
2023/07/11 01:06:36;;;;;;;5.43;2.10;;;24.00;74.80;;;;;;4247319;27;20053;-50
2023/07/11 01:08:39;;;;;;;14.40;2.53;;;23.90;74.70;;;;;;4247303;28;20086;-52
2023/07/11 01:10:41;;;;;;;8.73;2.80;;;23.90;74.80;;;;;;4247043;28;20461;-53
2023/07/11 01:12:46;;;;;;;6.72;2.50;;;23.90;74.70;;;;;;4247244;28;20135;-52
2023/07/11 01:14:49;;;;;;;;;;;23.90;74.80;;;;;;4246957;28;20074;-53
2023/07/11 01:16:52;;;;;;;7.30;2.28;;;23.90;75.20;;;;;;4247586;28;20355;-53
2023/07/11 01:18:54;;;;;;;4.45;2.30;;;23.80;74.90;;;;;;4247572;27;20075;-53
2023/07/11 01:20:57;;;;;;;5.45;2.40;;;23.80;75.10;;;;;;4247283;28;20043;-53
2023/07/11 01:23:00;;;;;;;6.82;2.35;;;23.80;75.00;;;;;;4247481;28;20504;-53
2023/07/11 01:25:08;;;;;;;4.88;1.75;;;23.80;74.90;;;;;;4245915;28;20141;-53
2023/07/11 01:27:10;;;;;;;5.63;2.53;;;23.90;74.80;;;;;;4246847;28;20055;-53
2023/07/11 01:29:12;;;;;;;4.68;2.25;;;23.80;75.30;;;;;;4249315;27;20054;-53
2023/07/11 01:31:14;;;;;;;3.45;1.80;;;23.80;75.50;;;;;;4251059;27;20517;-53
2023/07/11 01:33:16;;;;;;;7.38;2.30;;;23.80;75.60;;;;;;4250810;27;20054;-53
2023/07/11 01:35:18;;;;;;;6.50;2.70;;;23.70;75.90;;;;;;4249594;27;20078;-50
2023/07/11 01:37:21;;;;;;;10.57;2.58;;;23.70;76.20;;;;;;4250414;27;20047;-50
2023/07/11 01:39:25;;;;;;;9.43;2.40;;;23.70;76.90;;;;;;4250718;27;20078;-51
2023/07/11 01:41:27;;;;;;;7.77;2.87;;;23.60;76.90;;;;;;4250694;27;20043;-52
2023/07/11 01:43:29;;;;;;;10.35;2.42;;;23.60;76.80;;;;;;4232462;28;20047;-53
2023/07/11 01:45:31;;;;;;;8.38;2.45;;;23.60;77.20;;;;;;4249869;27;20043;-59
2023/07/11 01:47:33;;;;;;;7.22;2.63;;;23.50;78.20;;;;;;4251608;27;20065;-57
2023/07/11 01:49:36;;;;;;;13.90;3.13;;;23.50;77.90;;;;;;4250701;27;20043;-52
2023/07/11 01:51:38;;;;;;;6.10;2.80;;;23.40;78.30;;;;;;4250445;27;20043;-53
2023/07/11 01:53:40;;;;;;;6.95;2.47;;;23.40;78.20;;;;;;4250312;27;20050;-52
2023/07/11 01:55:53;;;;;;;9.15;2.70;;;23.30;78.60;;;;;;4249202;27;20045;-52
2023/07/11 01:57:55;;;;;;;4.72;2.47;;;23.30;79.10;;;;;;4250416;27;20086;-53
2023/07/11 01:59:57;;;;;;;10.48;2.80;;;23.20;79.00;;;;;;4250651;27;20126;-51
2023/07/11 02:01:59;;;;;;;6.53;2.75;;;23.20;79.10;;;;;;4250918;27;20177;-51
2023/07/11 02:04:01;;;;;;;9.68;2.95;;;23.20;79.20;;;;;;4249996;27;20043;-54
2023/07/11 02:06:03;;;;;;;5.57;2.38;;;23.10;79.30;;;;;;4249603;27;20053;-54
2023/07/11 02:08:06;;;;;;;6.40;2.40;;;23.10;79.70;;;;;;4231988;27;20483;-53
2023/07/11 02:10:09;;;;;;;7.82;2.50;;;23.00;79.80;;;;;;4250108;27;20043;-53
2023/07/11 02:12:14;;;;;;;6.78;2.58;;;23.00;80.10;;;;;;4250302;27;20100;-52
2023/07/11 02:14:18;;;;;;;;;;;23.00;80.70;;;;;;4249838;27;20078;-51
2023/07/11 02:16:20;;;;;;;6.53;2.97;;;22.90;81.00;;;;;;4249894;27;19975;-51
2023/07/11 02:18:23;;;;;;;5.00;2.38;;;22.80;80.10;;;;;;4250568;27;20107;-53
2023/07/11 02:20:25;;;;;;;6.07;2.92;;;22.80;80.30;;;;;;4250288;27;20066;-53
2023/07/11 02:22:27;;;;;;;5.65;2.22;;;22.80;80.40;;;;;;4249884;27;20051;-53
2023/07/11 02:24:29;;;;;;;10.82;2.90;;;22.80;80.80;;;;;;4248953;27;20495;-53
2023/07/11 02:26:31;;;;;;;6.70;2.40;;;22.80;81.30;;;;;;4250035;27;20074;-53
2023/07/11 02:28:34;;;;;;;6.38;2.92;;;22.80;80.80;;;;;;4249761;27;20047;-51
2023/07/11 02:30:37;;;;;;;5.97;2.42;;;22.80;80.70;;;;;;4249896;27;20126;-51
2023/07/11 02:32:41;;;;;;;5.97;2.50;;;22.80;81.10;;;;;;4249740;27;20070;-54
2023/07/11 02:34:43;;;;;;;7.00;2.92;;;22.80;81.10;;;;;;4248756;27;20043;-53
2023/07/11 02:36:45;;;;;;;5.57;2.20;;;22.80;81.30;;;;;;4249515;27;20050;-53
2023/07/11 02:38:47;;;;;;;5.93;2.80;;;22.70;81.00;;;;;;4249684;27;20112;-53
2023/07/11 02:40:49;;;;;;;6.72;2.90;;;22.70;81.30;;;;;;4249119;27;20123;-53
2023/07/11 02:42:52;;;;;;;10.55;2.92;;;22.70;81.10;;;;;;4249603;27;20047;-53
2023/07/11 02:44:55;;;;;;;6.43;2.58;;;22.70;81.20;;;;;;4248794;27;20050;-53
2023/07/11 02:46:57;;;;;;;6.88;2.40;;;22.70;81.20;;;;;;4249423;27;20118;-50
2023/07/11 02:49:00;;;;;;;8.63;3.15;;;22.70;82.20;;;;;;4249385;27;20145;-54
2023/07/11 02:51:02;;;;;;;5.68;2.28;;;22.70;82.30;;;;;;4249493;27;20047;-50
2023/07/11 02:53:04;;;;;;;8.93;2.70;;;22.60;82.30;;;;;;4249549;27;20039;-51
2023/07/11 02:55:07;;;;;;;6.32;2.28;;;22.60;82.20;;;;;;4248465;27;20126;-53
2023/07/11 02:57:11;;;;;;;4.28;2.40;;;22.60;82.10;;;;;;4249157;27;20047;-53
2023/07/11 02:59:13;;;;;;;6.97;2.73;;;22.60;81.90;;;;;;4249604;27;20126;-53
2023/07/11 03:01:16;;;;;;;7.43;2.75;;;22.60;82.30;;;;;;4249244;27;20443;-53
2023/07/11 03:03:19;;;;;;;9.38;2.92;;;22.60;82.60;;;;;;4249420;27;20047;-51
2023/07/11 03:05:21;;;;;;;6.82;2.45;;;22.50;82.80;;;;;;4247964;27;20039;-51
2023/07/11 03:07:23;;;;;;;7.82;2.50;;;22.50;82.90;;;;;;4248707;27;20043;-53
2023/07/11 03:09:26;;;;;;;10.25;2.58;;;22.60;83.20;;;;;;4249154;27;20051;-54
2023/07/11 03:11:28;;;;;;;7.50;2.78;;;22.50;83.30;;;;;;4231292;28;20413;-53
2023/07/11 03:13:30;;;;;;;5.53;2.38;;;22.50;83.10;;;;;;4249073;27;20053;-53
2023/07/11 03:15:33;;;;;;;5.25;2.20;;;22.50;82.70;;;;;;4248519;27;20043;-53
2023/07/11 03:17:37;;;;;;;5.95;2.50;;;22.50;82.60;;;;;;4248873;27;20050;-54
2023/07/11 03:19:39;;;;;;;4.63;2.28;;;22.50;82.60;;;;;;4248990;27;20047;-53
2023/07/11 03:21:41;;;;;;;7.28;2.53;;;22.50;82.70;;;;;;4248869;27;20053;-50
2023/07/11 03:23:43;;;;;;;9.70;2.72;;;22.50;82.80;;;;;;4249079;27;20047;-53
2023/07/11 03:25:46;;;;;;;5.85;2.53;;;22.50;83.30;;;;;;4247842;27;20506;-54
2023/07/11 03:27:48;;;;;;;7.90;2.33;;;22.50;84.10;;;;;;4248722;27;20077;-53
2023/07/11 03:29:50;;;;;;;10.32;3.10;;;22.50;84.10;;;;;;4248748;27;20044;-51
2023/07/11 03:31:52;;;;;;;9.05;2.97;;;22.40;83.90;;;;;;4248772;27;20039;-51
2023/07/11 03:33:55;;;;;;;8.68;3.15;;;22.40;84.00;;;;;;4249215;27;20074;-52
2023/07/11 03:35:57;;;;;;;7.60;2.50;;;22.40;84.10;;;;;;4247417;27;20070;-53
2023/07/11 03:38:00;;;;;;;5.32;2.30;;;22.40;84.40;;;;;;4248937;27;20051;-53
2023/07/11 03:40:03;;;;;;;17.00;3.13;;;22.30;84.20;;;;;;4248732;27;20043;-54
2023/07/11 03:42:06;;;;;;;9.05;2.97;;;22.40;84.20;;;;;;4248949;27;20043;-51
2023/07/11 03:44:09;;;;;;;5.47;2.95;;;22.30;84.20;;;;;;4229968;28;20134;-52
2023/07/11 03:46:11;;;;;;;8.98;3.17;;;22.40;84.30;;;;;;4247631;27;20486;-51
2023/07/11 03:48:14;;;;;;;11.38;3.30;;;22.40;83.90;;;;;;4248643;27;20055;-51
2023/07/11 03:50:17;;;;;;;12.48;3.65;;;22.50;84.10;;;;;;4248493;27;20062;-53
2023/07/11 03:52:19;;;;;;;11.25;3.75;;;22.60;83.70;;;;;;4247652;27;20425;-53
2023/07/11 03:54:23;;;;;;;13.10;3.90;;;22.50;83.00;;;;;;4248577;27;20049;-53
2023/07/11 03:56:27;;;;;;;12.17;4.07;;;22.50;82.60;;;;;;4247676;27;20039;-53
2023/07/11 03:58:29;;;;;;;10.43;3.85;;;22.50;82.50;;;;;;4248621;27;20474;-51
2023/07/11 04:00:31;;;;;;;11.30;4.10;;;22.50;82.30;;;;;;4248321;27;20043;-51
2023/07/11 04:02:33;;;;;;;10.93;3.83;;;22.50;82.50;;;;;;4248378;27;20046;-51
2023/07/11 04:04:35;;;;;;;15.80;4.38;;;22.50;82.50;;;;;;4247170;27;20051;-51
2023/07/11 04:06:39;;;;;;;8.82;4.60;;;22.50;82.50;;;;;;4247847;27;20047;-51
2023/07/11 04:08:41;;;;;;;8.63;4.20;;;22.50;81.70;;;;;;4248175;27;20414;-51
2023/07/11 04:10:43;;;;;;;11.98;4.07;;;22.50;81.60;;;;;;4248363;27;20050;-51
2023/07/11 04:12:45;;;;;;;7.93;3.45;;;22.50;81.90;;;;;;4248105;27;20047;-50
2023/07/11 04:14:47;;;;;;;9.20;3.42;;;22.50;82.00;;;;;;4247274;27;20057;-53
2023/07/11 04:16:49;;;;;;;13.57;4.93;;;22.50;82.60;;;;;;4247774;27;20043;-53
2023/07/11 04:18:51;;;;;;;12.55;4.32;;;22.40;82.70;;;;;;4248375;27;20046;-53
2023/07/11 04:20:53;;;;;;;9.35;3.72;;;22.40;82.90;;;;;;4247704;27;20043;-53
2023/07/11 04:22:56;;;;;;;13.23;3.78;;;22.30;83.00;;;;;;4248356;27;20167;-53
2023/07/11 04:24:58;;;;;;;10.10;3.90;;;22.30;83.40;;;;;;4246907;27;20475;-52
2023/07/11 04:27:00;;;;;;;10.60;3.67;;;22.40;83.40;;;;;;4247917;27;20062;-53
2023/07/11 04:29:02;;;;;;;10.20;3.78;;;22.30;83.60;;;;;;4247789;27;20043;-52
2023/07/11 04:31:04;;;;;;;9.93;3.80;;;22.30;83.90;;;;;;4248070;27;20049;-53
2023/07/11 04:33:06;;;;;;;8.13;3.40;;;22.30;84.20;;;;;;4247968;27;20122;-53
2023/07/11 04:35:14;;;;;;;10.80;4.10;;;22.30;84.20;;;;;;4246641;27;20039;-53
2023/07/11 04:37:16;;;;;;;12.32;4.15;;;22.30;84.60;;;;;;4247794;27;20398;-53
2023/07/11 04:39:20;;;;;;;9.00;3.60;;;22.30;84.50;;;;;;4247665;27;20043;-52
2023/07/11 04:41:22;;;;;;;10.10;3.95;;;22.30;84.80;;;;;;4247916;27;20141;-52
2023/07/11 04:43:24;;;;;;;14.23;4.13;;;22.30;84.90;;;;;;4247863;27;20482;-50
2023/07/11 04:45:26;;;;;;;9.65;3.60;;;22.30;85.10;;;;;;4228645;28;20475;-52
2023/07/11 04:47:28;;;;;;;10.57;4.55;;;22.30;85.20;;;;;;4247559;27;20093;-53
2023/07/11 04:49:30;;;;;;;9.10;4.15;;;22.40;84.70;;;;;;4247487;27;20043;-53
2023/07/11 04:51:32;;;;;;;11.38;3.75;;;22.40;85.40;;;;;;4247583;27;20039;-52
2023/07/11 04:53:35;;;;;;;11.13;4.15;;;22.40;85.00;;;;;;4247567;27;20100;-52
2023/07/11 04:55:38;;;;;;;10.95;3.67;;;22.40;85.20;;;;;;4246826;27;20047;-53
2023/07/11 04:57:40;;;;;;;14.52;3.90;;;22.50;85.50;;;;;;4247529;27;20130;-53
2023/07/11 04:59:43;;;;;;;14.88;4.20;;;22.50;85.10;;;;;;4247787;27;20070;-53
2023/07/11 05:01:45;;;;;;;10.90;3.97;;;22.50;84.80;;;;;;4247566;27;20047;-52
2023/07/11 05:03:48;;;;;;;8.52;3.33;;;22.60;84.60;;;;;;4246811;27;20051;-52
2023/07/11 05:05:50;;;;;;;8.30;3.17;;;22.60;84.20;;;;;;4246382;27;20096;-53
2023/07/11 05:07:52;;;;;;;6.72;2.92;;;22.70;83.90;;;;;;4247470;27;20049;-52
2023/07/11 05:09:54;;;;;;;9.75;2.90;;;22.70;83.30;;;;;;4247423;28;20049;-53
2023/07/11 05:12:01;;;;;;;9.45;2.70;;;22.80;83.30;;;;;;4247390;28;20098;-53
2023/07/11 05:14:04;;;;;;;5.57;2.42;;;22.80;83.00;;;;;;4247700;28;20043;-50
2023/07/11 05:16:07;;;;;;;7.18;3.10;;;22.90;83.20;;;;;;4246547;28;20043;-51
2023/07/11 05:18:10;;;;;;;8.77;3.45;;;22.90;83.30;;;;;;4247109;28;20451;-50
2023/07/11 05:20:12;;;;;;;14.98;4.40;;;22.90;83.70;;;;;;4247678;28;20047;-51
2023/07/11 05:22:14;;;;;;;12.82;4.10;;;22.90;83.60;;;;;;4248071;28;20429;-51
2023/07/11 05:24:16;;;;;;;11.88;4.28;;;23.00;83.80;;;;;;4247372;28;20333;-50
2023/07/11 05:26:19;;;;;;;17.42;4.30;;;23.00;83.80;;;;;;4246541;28;20050;-51
2023/07/11 05:28:24;;;;;;;17.27;4.82;;;23.00;84.00;;;;;;4247653;28;20054;-53
2023/07/11 05:30:26;;;;;;;14.38;5.13;;;23.00;84.10;;;;;;4247271;28;20051;-51
2023/07/11 05:32:28;;;;;;;14.38;4.90;;;23.00;84.30;;;;;;4246842;28;20070;-51
2023/07/11 05:34:31;;;;;;;12.88;4.60;;;22.90;84.90;;;;;;4247248;28;20039;-51
2023/07/11 05:36:37;;;;;;;13.38;3.95;;;23.00;84.80;;;;;;4246681;28;20055;-50
2023/07/11 05:38:40;;;;;;;9.50;2.58;;;22.90;85.20;;;;;;4247601;28;20530;-59
2023/07/11 05:40:42;;;;;;;8.93;2.53;;;23.00;83.70;;;;;;4248002;28;20055;-52
2023/07/11 05:42:44;;;;;;;7.03;2.42;;;23.00;83.00;;;;;;4247581;28;20075;-50
2023/07/11 05:44:47;;;;;;;8.43;2.13;;;23.10;82.70;;;;;;4247144;28;20448;-49
2023/07/11 05:46:49;;;;;;;7.93;2.30;;;23.10;82.60;;;;;;4246109;28;20039;-51
2023/07/11 05:48:53;;;;;;;8.48;2.60;;;23.10;82.30;;;;;;4247083;27;20047;-52
2023/07/11 05:50:58;;;;;;;7.05;2.25;;;23.10;82.10;;;;;;4247356;28;20463;-53
2023/07/11 05:53:00;;;;;;;8.55;2.50;;;23.10;81.90;;;;;;4247103;28;20082;-53
2023/07/11 05:55:03;;;;;;;9.20;2.15;;;23.20;81.90;;;;;;4246413;28;20043;-53
2023/07/11 05:57:05;;;;;;;7.60;2.38;;;23.20;81.80;;;;;;4246815;28;20039;-53
2023/07/11 05:59:07;;;;;;;7.85;2.80;;;23.20;81.70;;;;;;4246991;28;20059;-50
2023/07/11 06:01:12;;;;;;;9.20;2.70;;;23.30;81.70;;;;;;4228506;28;20039;-51
2023/07/11 06:03:14;;;;;;;6.80;2.33;;;23.30;81.60;;;;;;4247296;28;20046;-51
2023/07/11 06:05:16;;;;;;;9.73;2.95;;;23.40;81.50;;;;;;4246031;28;20135;-52
2023/07/11 06:07:18;;;;;;;5.25;2.20;;;23.40;81.70;;;;;;4246756;28;20078;-50
2023/07/11 06:09:20;;;;;;;5.88;2.47;;;23.40;81.40;;;;;;4247401;28;20198;-52
2023/07/11 06:11:23;;;;;;;5.40;2.55;;;23.40;81.40;;;;;;4247122;28;20046;-50
2023/07/11 06:13:26;;;;;;;5.63;2.13;;;23.40;81.50;;;;;;4247361;28;20042;-51
2023/07/11 06:15:28;;;;;;;4.55;2.10;;;23.40;81.40;;;;;;4246605;27;20483;-50
2023/07/11 06:17:31;;;;;;;7.53;2.20;;;23.40;81.40;;;;;;4249822;27;20075;-51
2023/07/11 06:19:33;;;;;;;6.55;2.83;;;23.40;81.50;;;;;;4250307;27;20071;-51
2023/07/11 06:21:35;;;;;;;10.23;2.42;;;23.40;81.40;;;;;;4250361;27;20405;-50
2023/07/11 06:23:38;;;;;;;7.00;2.67;;;23.40;81.40;;;;;;4250096;27;20043;-55
2023/07/11 06:25:40;;;;;;;9.10;2.60;;;23.50;81.50;;;;;;4248790;27;20127;-55
2023/07/11 06:27:42;;;;;;;16.25;2.63;;;23.50;81.70;;;;;;4249810;27;20047;-52
2023/07/11 06:29:46;;;;;;;8.15;2.50;;;23.50;81.70;;;;;;4249670;27;20047;-52
2023/07/11 06:31:48;;;;;;;9.25;2.45;;;23.50;81.80;;;;;;4249965;27;20563;-50
2023/07/11 06:33:52;;;;;;;10.25;2.60;;;23.60;81.70;;;;;;4252482;27;20049;-52
2023/07/11 06:35:54;;;;;;;6.97;2.50;;;23.60;81.70;;;;;;4232044;28;20118;-54
2023/07/11 06:37:57;;;;;;;7.82;2.70;;;23.70;81.80;;;;;;4250521;27;20043;-59
2023/07/11 06:39:59;;;;;;;7.82;2.47;;;23.70;81.70;;;;;;4252348;27;20043;-57
2023/07/11 06:42:02;;;;;;;7.53;2.03;;;23.80;81.50;;;;;;4253312;27;20387;-55
2023/07/11 06:44:06;;;;;;;9.52;2.58;;;23.80;81.50;;;;;;4252191;27;20055;-61
2023/07/11 06:46:09;;;;;;;6.40;2.42;;;23.80;81.20;;;;;;4251857;27;20117;-60
2023/07/11 06:48:11;;;;;;;8.68;2.33;;;23.90;81.40;;;;;;4252677;27;20039;-57
2023/07/11 06:50:15;;;;;;;8.40;2.97;;;23.90;81.40;;;;;;4253768;27;20067;-56
2023/07/11 06:52:17;;;;;;;8.68;2.70;;;24.00;81.20;;;;;;4253838;27;20058;-53
2023/07/11 06:54:20;;;;;;;6.78;2.63;;;24.00;81.20;;;;;;4253394;27;20096;-63
2023/07/11 06:56:22;;;;;;;10.60;2.30;;;24.00;81.00;;;;;;4251319;27;20424;-56
2023/07/11 06:58:26;;;;;;;8.13;2.83;;;24.10;80.90;;;;;;4252746;27;20118;-55
2023/07/11 07:00:28;;;;;;;7.38;2.15;;;24.10;80.50;;;;;;4252342;27;20070;-62
2023/07/11 07:02:30;;;;;;;9.27;2.72;;;24.10;80.60;;;;;;4252354;27;20543;-57
2023/07/11 07:04:32;;;;;;;8.10;2.25;;;24.20;83.00;;;;;;4252817;27;20054;-61
2023/07/11 07:06:36;;;;;;;11.27;2.70;;;24.30;84.10;;;;;;4251531;27;20046;-58
2023/07/11 07:08:39;;;;;;;10.85;2.67;;;24.40;82.40;;;;;;4252000;27;20058;-57
2023/07/11 07:10:41;;;;;;;6.20;1.92;;;24.50;81.80;;;;;;4253426;27;20086;-55
2023/07/11 07:12:43;;;;;;;6.72;2.60;;;24.50;81.90;;;;;;4253008;27;20104;-52
2023/07/11 07:14:45;;;;;;;10.80;2.55;;;24.70;81.40;;;;;;4251797;27;20104;-53
2023/07/11 07:16:47;;;;;;;6.22;2.58;;;24.90;80.50;;;;;;4252485;27;20064;-52
2023/07/11 07:18:49;;;;;;;7.30;2.40;;;25.10;79.50;;;;;;4251856;27;20138;-56
2023/07/11 07:20:53;;;;;;;7.85;2.40;;;25.30;78.90;;;;;;4251964;27;20150;-52
2023/07/11 07:23:02;;;;;;;6.82;2.42;;;25.40;78.80;;;;;;4252673;27;20059;-61
2023/07/11 07:25:05;;;;;;;9.77;2.85;;;25.60;78.70;;;;;;4251235;27;20122;-52
2023/07/11 07:27:25;;;;;;;7.03;2.28;;;25.80;78.30;;;;;;4250841;27;20039;-52
2023/07/11 07:29:30;;;;;;;;;;;25.90;77.90;;;;;;4251524;27;20055;-52
2023/07/11 07:31:32;;;;;;;10.23;2.15;;;25.90;77.50;;;;;;4248883;27;19969;-54
2023/07/11 07:33:34;;;;;;;5.88;2.33;;;26.00;77.30;;;;;;4250187;27;20320;-53
2023/07/11 07:35:36;;;;;;;6.00;2.05;;;26.10;77.20;;;;;;4248323;27;20080;-53
2023/07/11 07:37:38;;;;;;;6.53;2.20;;;26.20;77.10;;;;;;4248786;27;20470;-54
2023/07/11 07:39:42;;;;;;;10.63;2.97;;;26.30;76.50;;;;;;4248580;27;20051;-50
2023/07/11 07:41:44;;;;;;;6.82;2.08;;;26.50;77.10;;;;;;4248709;27;20096;-50
2023/07/11 07:43:46;;;;;;;7.57;2.65;;;26.50;76.80;;;;;;4248548;27;20042;-53
2023/07/11 07:45:49;;;;;;;8.27;2.35;;;26.60;76.60;;;;;;4247724;27;20047;-52
2023/07/11 07:47:51;;;;;;;8.07;2.40;;;26.70;76.20;;;;;;4248520;27;20108;-52
2023/07/11 07:49:54;;;;;;;13.35;2.70;;;26.80;76.80;;;;;;4248746;27;20047;-52
2023/07/11 07:52:00;;;;;;;6.28;2.47;;;26.80;76.20;;;;;;4248376;27;20050;-51
2023/07/11 07:54:02;;;;;;;4.95;2.40;;;27.00;75.80;;;;;;4248100;27;20050;-50
2023/07/11 07:56:08;;;;;;;5.07;2.55;;;27.00;76.80;;;;;;4247498;27;20047;-50
2023/07/11 07:58:13;;;;;;;5.35;2.38;;;27.10;76.30;;;;;;4248122;27;20047;-55
2023/07/11 08:00:22;;;;;;;9.13;2.30;;;27.20;75.90;;;;;;4248583;27;20100;-55
2023/07/11 08:02:24;;;;;;;5.78;2.75;;;27.30;75.60;;;;;;4248493;27;20086;-55
2023/07/11 08:04:30;;;;;;;5.85;2.60;;;27.30;75.60;;;;;;4248165;27;20498;-56
2023/07/11 08:06:32;;;;;;;7.60;2.30;;;27.20;76.00;;;;;;4247151;27;20104;-56
2023/07/11 08:08:34;;;;;;;5.97;1.98;;;27.30;76.60;;;;;;4248268;27;20066;-51
2023/07/11 08:10:36;;;;;;;9.48;2.70;;;27.30;75.90;;;;;;4248201;27;20043;-52
2023/07/11 08:12:40;;;;;;;5.65;2.65;;;27.30;76.90;;;;;;4247689;27;20070;-50
2023/07/11 08:14:42;;;;;;;5.75;2.38;;;27.40;75.90;;;;;;4248072;27;20043;-50
2023/07/11 08:16:44;;;;;;;5.38;2.00;;;27.40;75.70;;;;;;4246863;27;20039;-54
2023/07/11 08:18:46;;;;;;;7.38;2.33;;;27.40;75.30;;;;;;4247927;27;20554;-53
2023/07/11 08:20:48;;;;;;;15.70;2.75;;;27.50;75.10;;;;;;4248204;27;20131;-54
2023/07/11 08:22:50;;;;;;;5.47;2.65;;;27.50;75.40;;;;;;4248020;27;20069;-52
2023/07/11 08:24:52;;;;;;;5.72;2.28;;;27.50;74.80;;;;;;4247789;27;20414;-51
2023/07/11 08:26:55;;;;;;;6.75;2.30;;;27.60;74.60;;;;;;4246230;27;20139;-51
2023/07/11 08:28:59;;;;;;;5.55;2.05;;;27.60;74.40;;;;;;4247853;27;20050;-52
2023/07/11 08:31:08;;;;;;;6.72;2.33;;;27.70;74.60;;;;;;4247856;27;20148;-52
2023/07/11 08:33:11;;;;;;;7.47;2.28;;;27.80;74.60;;;;;;4247672;27;20043;-54
2023/07/11 08:35:14;;;;;;;6.25;2.17;;;27.80;73.80;;;;;;4247869;27;20043;-54
2023/07/11 08:37:17;;;;;;;8.07;2.85;;;27.80;74.50;;;;;;4246783;27;20074;-54
2023/07/11 08:39:20;;;;;;;6.30;2.10;;;27.80;74.70;;;;;;4246937;27;20413;-54
2023/07/11 08:41:33;;;;;;;5.95;2.72;;;27.80;74.10;;;;;;4247282;27;20053;-54
2023/07/11 08:43:35;;;;;;;8.52;2.40;;;27.80;74.60;;;;;;4247839;27;20133;-51
2023/07/11 08:45:46;;;;;;;12.60;2.50;;;27.90;74.90;;;;;;4246762;27;20093;-51
2023/07/11 08:48:04;;;;;;;10.27;2.55;;;28.00;75.00;;;;;;4247515;27;20088;-52
2023/07/11 08:50:13;;;;;;;5.03;2.30;;;28.00;75.10;;;;;;4247732;27;20051;-52
2023/07/11 08:52:18;;;;;;;5.22;2.53;;;28.10;74.60;;;;;;4247537;27;20045;-54
2023/07/11 08:54:27;;;;;;;6.43;2.65;;;28.10;74.00;;;;;;4247391;27;20047;-51
2023/07/11 08:56:36;;;;;;;14.35;3.55;;;28.10;74.70;;;;;;4246278;27;20054;-50
2023/07/11 08:58:46;;;;;;;7.63;2.72;;;28.20;74.00;;;;;;4247365;27;20382;-53
2023/07/11 09:00:51;;;;;;;16.05;2.72;;;28.30;74.20;;;;;;4247405;27;20072;-51
2023/07/11 09:02:56;;;;;;;10.77;2.40;;;28.30;73.10;;;;;;4247444;27;20047;-51
2023/07/11 09:05:13;;;;;;;17.05;3.20;;;28.30;74.00;;;;;;4230394;28;20044;-50
2023/07/11 09:07:25;;;;;;;5.63;2.53;;;28.30;73.70;;;;;;4246153;27;20547;-53
2023/07/11 09:09:27;;;;;;;6.70;2.75;;;28.30;73.80;;;;;;4247142;27;20497;-51
2023/07/11 09:11:37;;;;;;;9.57;2.28;;;28.30;73.30;;;;;;4247023;28;20054;-51
2023/07/11 09:14:00;;;;;;;6.97;2.80;;;28.40;73.60;;;;;;4247301;28;20502;-51
2023/07/11 09:16:12;;;;;;;8.43;3.03;;;28.50;73.30;;;;;;4246515;28;20050;-52
2023/07/11 09:18:25;;;;;;;9.70;3.00;;;28.50;73.60;;;;;;4247328;28;20486;-52
2023/07/11 09:20:40;;;;;;;13.43;3.08;;;28.60;73.50;;;;;;4247013;28;20045;-51
2023/07/11 09:22:51;;;;;;;13.18;2.90;;;28.60;73.80;;;;;;4247152;28;20046;-51
2023/07/11 09:25:00;;;;;;;7.53;2.35;;;28.60;73.30;;;;;;4246776;28;20413;-51
2023/07/11 09:27:21;;;;;;;7.35;2.47;;;28.60;73.20;;;;;;4246352;28;20192;-51
2023/07/11 09:29:23;;;;;;;7.93;2.78;;;28.70;73.20;;;;;;4247274;28;20049;-51
2023/07/11 09:31:32;;;;;;;12.50;3.15;;;28.80;73.50;;;;;;4246943;28;20067;-52
2023/07/11 09:33:38;;;;;;;8.68;2.70;;;28.80;73.10;;;;;;4228700;28;20149;-51
2023/07/11 09:35:42;;;;;;;7.13;2.58;;;28.80;72.60;;;;;;4246363;28;20059;-52
2023/07/11 09:37:48;;;;;;;20.35;4.18;;;28.80;72.80;;;;;;4247090;28;20039;-54
2023/07/11 09:39:54;;;;;;;12.90;3.60;;;28.80;73.20;;;;;;4246897;28;20479;-54
2023/07/11 09:42:02;;;;;;;13.35;3.67;;;28.80;73.20;;;;;;4247239;28;20047;-54
2023/07/11 09:44:08;;;;;;;8.73;2.70;;;28.90;73.20;;;;;;4246889;28;20130;-52
2023/07/11 09:46:13;;;;;;;10.30;2.42;;;28.80;72.80;;;;;;4246331;28;20039;-53
2023/07/11 09:48:18;;;;;;;9.75;2.70;;;29.00;73.40;;;;;;4247080;28;20063;-53
2023/07/11 09:50:31;;;;;;;20.08;3.03;;;29.10;72.80;;;;;;4247301;27;20039;-53
2023/07/11 09:52:44;;;;;;;7.25;2.80;;;29.10;72.70;;;;;;4250159;27;20465;-56
2023/07/11 09:54:47;;;;;;;19.95;3.10;;;29.10;72.50;;;;;;4250464;27;20521;-55
2023/07/11 09:56:52;;;;;;;39.17;5.40;;;29.20;73.00;;;;;;4249322;27;20047;-55
2023/07/11 09:58:58;;;;;;;18.08;3.53;;;29.30;73.20;;;;;;4247834;27;20049;-55
2023/07/11 10:01:02;;;;;;;5.85;2.60;;;29.40;72.50;;;;;;4244112;27;20047;-53
2023/07/11 10:03:04;;;;;;;100.20;7.95;;;29.50;72.10;;;;;;4246386;27;20040;-52
2023/07/11 10:05:14;;;;;;;18.40;3.35;;;29.60;71.90;;;;;;4249283;27;20047;-51
2023/07/11 10:07:16;;;;;;;6.70;2.92;;;29.70;71.70;;;;;;4244628;27;20075;-50
2023/07/11 10:09:22;;;;;;;8.65;3.22;;;29.80;71.40;;;;;;4249031;27;20039;-52
2023/07/11 10:11:24;;;;;;;15.40;3.00;;;29.90;71.20;;;;;;4246533;27;20062;-52
2023/07/11 10:13:27;;;;;;;15.77;3.08;;;30.00;71.10;;;;;;4249170;27;20063;-52
2023/07/11 10:15:35;;;;;;;16.23;3.45;;;29.90;70.50;;;;;;4249185;27;20157;-52
2023/07/11 10:17:42;;;;;;;6.40;2.55;;;29.80;70.50;;;;;;4245523;27;20608;-51
2023/07/11 10:19:46;;;;;;;6.15;2.50;;;29.80;70.40;;;;;;4248813;27;20046;-52
2023/07/11 10:21:51;;;;;;;7.00;2.70;;;29.90;70.00;;;;;;4230457;28;20043;-53
2023/07/11 10:23:58;;;;;;;6.05;2.70;;;30.00;70.20;;;;;;4246319;27;20494;-52
2023/07/11 10:26:22;;;;;;;8.18;2.83;;;30.00;69.70;;;;;;4247659;27;20043;-52
2023/07/11 10:28:29;;;;;;;8.43;2.80;;;30.00;69.50;;;;;;4246952;27;20036;-51
2023/07/11 10:30:32;;;;;;;7.40;2.53;;;30.00;69.90;;;;;;4248674;27;20489;-50
2023/07/11 10:32:42;;;;;;;10.00;2.92;;;29.90;70.10;;;;;;4248933;27;20088;-52
2023/07/11 10:34:49;;;;;;;9.00;2.90;;;29.90;69.70;;;;;;4247073;27;20047;-52
2023/07/11 10:36:58;;;;;;;7.55;2.83;;;30.00;69.90;;;;;;4244187;27;20043;-52
2023/07/11 10:39:03;;;;;;;5.78;2.75;;;30.00;70.10;;;;;;4246298;27;20051;-51
2023/07/11 10:41:05;;;;;;;10.82;2.92;;;30.10;70.10;;;;;;4248609;27;20039;-55
2023/07/11 10:43:18;;;;;;;7.43;2.95;;;30.00;69.80;;;;;;4248666;27;20130;-55